sensor_id;sensor_type;location;lat;lon;timestamp;P1;durP1;ratioP1;P2;durP2;ratioP2
8574;SDS011;4325;42.520;27.448;2023-06-22T00:02:00;9.57;;;6.47;;
8574;SDS011;4325;42.520;27.448;2023-06-22T00:04:28;9.73;;;5.13;;
8574;SDS011;4325;42.520;27.448;2023-06-22T00:06:55;7.67;;;5.70;;
8574;SDS011;4325;42.520;27.448;2023-06-22T00:09:21;7.47;;;5.23;;
8574;SDS011;4325;42.520;27.448;2023-06-22T00:11:50;7.77;;;5.27;;
8574;SDS011;4325;42.520;27.448;2023-06-22T00:14:16;9.03;;;5.50;;
8574;SDS011;4325;42.520;27.448;2023-06-22T00:16:43;8.23;;;6.23;;
8574;SDS011;4325;42.520;27.448;2023-06-22T00:19:13;10.50;;;6.17;;
8574;SDS011;4325;42.520;27.448;2023-06-22T00:21:40;11.10;;;7.40;;
8574;SDS011;4325;42.520;27.448;2023-06-22T00:24:08;13.03;;;8.40;;
8574;SDS011;4325;42.520;27.448;2023-06-22T00:26:35;12.07;;;6.97;;
8574;SDS011;4325;42.520;27.448;2023-06-22T00:29:03;10.80;;;7.40;;
8574;SDS011;4325;42.520;27.448;2023-06-22T00:31:30;11.93;;;7.03;;
8574;SDS011;4325;42.520;27.448;2023-06-22T00:33:57;11.50;;;7.27;;
8574;SDS011;4325;42.520;27.448;2023-06-22T00:36:24;8.60;;;5.90;;
8574;SDS011;4325;42.520;27.448;2023-06-22T00:38:50;9.83;;;5.97;;
8574;SDS011;4325;42.520;27.448;2023-06-22T00:41:17;10.33;;;6.20;;
8574;SDS011;4325;42.520;27.448;2023-06-22T00:43:44;8.13;;;5.67;;
8574;SDS011;4325;42.520;27.448;2023-06-22T00:46:13;9.70;;;5.57;;
8574;SDS011;4325;42.520;27.448;2023-06-22T00:48:40;11.80;;;6.30;;
8574;SDS011;4325;42.520;27.448;2023-06-22T00:51:09;9.07;;;5.43;;
8574;SDS011;4325;42.520;27.448;2023-06-22T00:53:36;11.43;;;5.87;;
8574;SDS011;4325;42.520;27.448;2023-06-22T00:56:03;7.73;;;6.03;;
8574;SDS011;4325;42.520;27.448;2023-06-22T00:58:31;9.67;;;6.80;;
8574;SDS011;4325;42.520;27.448;2023-06-22T01:00:58;10.73;;;6.40;;
8574;SDS011;4325;42.520;27.448;2023-06-22T01:03:27;8.47;;;6.70;;
8574;SDS011;4325;42.520;27.448;2023-06-22T01:05:55;8.37;;;6.10;;
8574;SDS011;4325;42.520;27.448;2023-06-22T01:08:29;8.83;;;6.43;;
8574;SDS011;4325;42.520;27.448;2023-06-22T01:11:05;7.50;;;5.27;;
8574;SDS011;4325;42.520;27.448;2023-06-22T01:13:37;8.10;;;5.27;;
8574;SDS011;4325;42.520;27.448;2023-06-22T01:16:10;7.83;;;5.43;;
8574;SDS011;4325;42.520;27.448;2023-06-22T01:18:42;10.63;;;5.27;;
8574;SDS011;4325;42.520;27.448;2023-06-22T01:21:11;6.63;;;5.37;;
8574;SDS011;4325;42.520;27.448;2023-06-22T01:23:49;10.27;;;5.93;;
8574;SDS011;4325;42.520;27.448;2023-06-22T01:26:25;7.63;;;4.90;;
8574;SDS011;4325;42.520;27.448;2023-06-22T01:29:02;8.13;;;5.60;;
8574;SDS011;4325;42.520;27.448;2023-06-22T01:31:31;7.20;;;5.00;;
8574;SDS011;4325;42.520;27.448;2023-06-22T01:34:01;12.37;;;5.40;;
8574;SDS011;4325;42.520;27.448;2023-06-22T01:36:30;7.30;;;5.30;;
8574;SDS011;4325;42.520;27.448;2023-06-22T01:38:58;8.30;;;5.57;;
8574;SDS011;4325;42.520;27.448;2023-06-22T01:41:26;7.80;;;5.60;;
8574;SDS011;4325;42.520;27.448;2023-06-22T01:43:55;7.93;;;5.03;;
8574;SDS011;4325;42.520;27.448;2023-06-22T01:46:24;7.30;;;4.97;;
8574;SDS011;4325;42.520;27.448;2023-06-22T01:48:51;12.17;;;5.70;;
8574;SDS011;4325;42.520;27.448;2023-06-22T01:51:19;13.10;;;5.63;;
8574;SDS011;4325;42.520;27.448;2023-06-22T01:53:46;6.50;;;5.30;;
8574;SDS011;4325;42.520;27.448;2023-06-22T01:56:14;6.77;;;5.13;;
8574;SDS011;4325;42.520;27.448;2023-06-22T01:58:45;7.37;;;5.63;;
8574;SDS011;4325;42.520;27.448;2023-06-22T02:01:19;6.30;;;4.10;;
8574;SDS011;4325;42.520;27.448;2023-06-22T02:03:53;10.13;;;5.23;;
8574;SDS011;4325;42.520;27.448;2023-06-22T02:06:27;4.73;;;4.23;;
8574;SDS011;4325;42.520;27.448;2023-06-22T02:09:02;8.93;;;4.97;;
8574;SDS011;4325;42.520;27.448;2023-06-22T02:11:35;5.73;;;4.30;;
8574;SDS011;4325;42.520;27.448;2023-06-22T02:14:03;6.47;;;4.63;;
8574;SDS011;4325;42.520;27.448;2023-06-22T02:16:31;6.67;;;5.30;;
8574;SDS011;4325;42.520;27.448;2023-06-22T02:19:00;8.60;;;5.37;;
8574;SDS011;4325;42.520;27.448;2023-06-22T02:21:29;5.93;;;4.50;;
8574;SDS011;4325;42.520;27.448;2023-06-22T02:23:56;7.63;;;4.90;;
8574;SDS011;4325;42.520;27.448;2023-06-22T02:26:23;6.57;;;5.77;;
8574;SDS011;4325;42.520;27.448;2023-06-22T02:28:51;8.33;;;5.60;;
8574;SDS011;4325;42.520;27.448;2023-06-22T02:31:18;8.23;;;5.00;;
8574;SDS011;4325;42.520;27.448;2023-06-22T02:33:46;7.17;;;4.60;;
8574;SDS011;4325;42.520;27.448;2023-06-22T02:36:15;9.13;;;6.10;;
8574;SDS011;4325;42.520;27.448;2023-06-22T02:38:42;8.03;;;5.67;;
8574;SDS011;4325;42.520;27.448;2023-06-22T02:41:13;7.47;;;5.70;;
8574;SDS011;4325;42.520;27.448;2023-06-22T02:43:43;8.20;;;5.57;;
8574;SDS011;4325;42.520;27.448;2023-06-22T02:46:11;8.97;;;5.27;;
8574;SDS011;4325;42.520;27.448;2023-06-22T02:48:39;14.03;;;6.60;;
8574;SDS011;4325;42.520;27.448;2023-06-22T02:51:05;8.43;;;5.50;;
8574;SDS011;4325;42.520;27.448;2023-06-22T02:53:34;11.67;;;6.47;;
8574;SDS011;4325;42.520;27.448;2023-06-22T02:56:01;14.20;;;6.53;;
8574;SDS011;4325;42.520;27.448;2023-06-22T02:58:30;8.47;;;6.40;;
8574;SDS011;4325;42.520;27.448;2023-06-22T03:00:58;11.63;;;6.53;;
8574;SDS011;4325;42.520;27.448;2023-06-22T03:03:29;18.47;;;8.87;;
8574;SDS011;4325;42.520;27.448;2023-06-22T03:05:56;24.00;;;13.33;;
8574;SDS011;4325;42.520;27.448;2023-06-22T03:08:23;20.57;;;13.87;;
8574;SDS011;4325;42.520;27.448;2023-06-22T03:10:51;30.83;;;18.03;;
8574;SDS011;4325;42.520;27.448;2023-06-22T03:13:18;27.63;;;13.37;;
8574;SDS011;4325;42.520;27.448;2023-06-22T03:15:45;21.17;;;11.87;;
8574;SDS011;4325;42.520;27.448;2023-06-22T03:18:12;27.23;;;13.43;;
8574;SDS011;4325;42.520;27.448;2023-06-22T03:20:40;20.03;;;10.63;;
8574;SDS011;4325;42.520;27.448;2023-06-22T03:23:07;17.27;;;9.93;;
8574;SDS011;4325;42.520;27.448;2023-06-22T03:25:35;11.50;;;8.40;;
8574;SDS011;4325;42.520;27.448;2023-06-22T03:28:03;12.27;;;7.10;;
8574;SDS011;4325;42.520;27.448;2023-06-22T03:30:30;7.17;;;4.67;;
8574;SDS011;4325;42.520;27.448;2023-06-22T03:32:57;9.10;;;6.53;;
8574;SDS011;4325;42.520;27.448;2023-06-22T03:35:24;10.93;;;5.93;;
8574;SDS011;4325;42.520;27.448;2023-06-22T03:37:51;13.00;;;9.00;;
8574;SDS011;4325;42.520;27.448;2023-06-22T03:40:18;17.70;;;7.53;;
8574;SDS011;4325;42.520;27.448;2023-06-22T03:42:45;15.67;;;7.60;;
8574;SDS011;4325;42.520;27.448;2023-06-22T03:45:14;12.90;;;6.37;;
8574;SDS011;4325;42.520;27.448;2023-06-22T03:47:41;8.30;;;6.40;;
8574;SDS011;4325;42.520;27.448;2023-06-22T03:50:08;12.33;;;8.10;;
8574;SDS011;4325;42.520;27.448;2023-06-22T03:52:35;13.33;;;7.50;;
8574;SDS011;4325;42.520;27.448;2023-06-22T03:55:02;12.60;;;8.07;;
8574;SDS011;4325;42.520;27.448;2023-06-22T03:57:30;16.10;;;9.23;;
8574;SDS011;4325;42.520;27.448;2023-06-22T03:59:57;9.43;;;6.80;;
8574;SDS011;4325;42.520;27.448;2023-06-22T04:02:25;12.03;;;7.03;;
8574;SDS011;4325;42.520;27.448;2023-06-22T04:04:52;11.17;;;6.00;;
8574;SDS011;4325;42.520;27.448;2023-06-22T04:07:19;10.03;;;5.90;;
8574;SDS011;4325;42.520;27.448;2023-06-22T04:09:46;12.80;;;7.07;;
8574;SDS011;4325;42.520;27.448;2023-06-22T04:12:13;11.87;;;7.33;;
8574;SDS011;4325;42.520;27.448;2023-06-22T04:14:40;24.77;;;8.27;;
8574;SDS011;4325;42.520;27.448;2023-06-22T04:17:07;13.73;;;8.17;;
8574;SDS011;4325;42.520;27.448;2023-06-22T04:19:35;17.33;;;8.43;;
8574;SDS011;4325;42.520;27.448;2023-06-22T04:22:02;17.47;;;8.63;;
8574;SDS011;4325;42.520;27.448;2023-06-22T04:24:31;22.00;;;8.33;;
8574;SDS011;4325;42.520;27.448;2023-06-22T04:26:58;10.53;;;7.47;;
8574;SDS011;4325;42.520;27.448;2023-06-22T04:29:25;12.07;;;8.03;;
8574;SDS011;4325;42.520;27.448;2023-06-22T04:31:55;19.50;;;8.80;;
8574;SDS011;4325;42.520;27.448;2023-06-22T04:34:23;16.90;;;8.27;;
8574;SDS011;4325;42.520;27.448;2023-06-22T04:36:52;17.03;;;8.97;;
8574;SDS011;4325;42.520;27.448;2023-06-22T04:39:20;17.73;;;7.90;;
8574;SDS011;4325;42.520;27.448;2023-06-22T04:41:47;14.50;;;6.80;;
8574;SDS011;4325;42.520;27.448;2023-06-22T04:44:16;13.43;;;6.80;;
8574;SDS011;4325;42.520;27.448;2023-06-22T04:46:49;10.60;;;6.07;;
8574;SDS011;4325;42.520;27.448;2023-06-22T04:49:18;12.30;;;6.10;;
8574;SDS011;4325;42.520;27.448;2023-06-22T04:51:47;11.23;;;6.97;;
8574;SDS011;4325;42.520;27.448;2023-06-22T04:54:15;8.87;;;6.53;;
8574;SDS011;4325;42.520;27.448;2023-06-22T04:56:44;13.50;;;6.90;;
8574;SDS011;4325;42.520;27.448;2023-06-22T04:59:11;15.03;;;7.37;;
8574;SDS011;4325;42.520;27.448;2023-06-22T05:01:39;7.63;;;5.17;;
8574;SDS011;4325;42.520;27.448;2023-06-22T05:04:06;7.80;;;5.57;;
8574;SDS011;4325;42.520;27.448;2023-06-22T05:06:34;14.37;;;7.57;;
8574;SDS011;4325;42.520;27.448;2023-06-22T05:09:00;8.10;;;6.23;;
8574;SDS011;4325;42.520;27.448;2023-06-22T05:11:30;19.70;;;8.23;;
8574;SDS011;4325;42.520;27.448;2023-06-22T05:13:57;14.00;;;6.67;;
8574;SDS011;4325;42.520;27.448;2023-06-22T05:16:24;30.10;;;8.07;;
8574;SDS011;4325;42.520;27.448;2023-06-22T05:18:52;12.93;;;8.27;;
8574;SDS011;4325;42.520;27.448;2023-06-22T05:21:23;15.47;;;7.27;;
8574;SDS011;4325;42.520;27.448;2023-06-22T05:23:52;11.07;;;7.40;;
8574;SDS011;4325;42.520;27.448;2023-06-22T05:26:21;11.63;;;6.27;;
8574;SDS011;4325;42.520;27.448;2023-06-22T05:28:49;13.23;;;5.97;;
8574;SDS011;4325;42.520;27.448;2023-06-22T05:31:16;9.67;;;6.37;;
8574;SDS011;4325;42.520;27.448;2023-06-22T05:33:45;10.20;;;6.70;;
8574;SDS011;4325;42.520;27.448;2023-06-22T05:36:13;9.53;;;6.97;;
8574;SDS011;4325;42.520;27.448;2023-06-22T05:38:40;11.37;;;6.47;;
8574;SDS011;4325;42.520;27.448;2023-06-22T05:41:08;8.93;;;6.63;;
8574;SDS011;4325;42.520;27.448;2023-06-22T05:43:35;10.23;;;6.23;;
8574;SDS011;4325;42.520;27.448;2023-06-22T05:46:03;10.67;;;7.20;;
8574;SDS011;4325;42.520;27.448;2023-06-22T05:48:31;12.07;;;6.93;;
8574;SDS011;4325;42.520;27.448;2023-06-22T05:50:58;8.53;;;6.17;;
8574;SDS011;4325;42.520;27.448;2023-06-22T05:53:25;13.17;;;6.43;;
8574;SDS011;4325;42.520;27.448;2023-06-22T05:55:52;9.67;;;7.13;;
8574;SDS011;4325;42.520;27.448;2023-06-22T05:58:19;13.07;;;7.37;;
8574;SDS011;4325;42.520;27.448;2023-06-22T06:00:46;10.60;;;6.40;;
8574;SDS011;4325;42.520;27.448;2023-06-22T06:03:14;10.10;;;7.70;;
8574;SDS011;4325;42.520;27.448;2023-06-22T06:05:42;11.37;;;6.63;;
8574;SDS011;4325;42.520;27.448;2023-06-22T06:08:10;7.97;;;5.77;;
8574;SDS011;4325;42.520;27.448;2023-06-22T06:10:37;8.10;;;6.17;;
8574;SDS011;4325;42.520;27.448;2023-06-22T06:13:04;7.53;;;6.33;;
8574;SDS011;4325;42.520;27.448;2023-06-22T06:15:31;10.47;;;6.17;;
8574;SDS011;4325;42.520;27.448;2023-06-22T06:17:58;7.87;;;5.50;;
8574;SDS011;4325;42.520;27.448;2023-06-22T06:20:26;6.73;;;5.93;;
8574;SDS011;4325;42.520;27.448;2023-06-22T06:22:54;7.03;;;5.40;;
8574;SDS011;4325;42.520;27.448;2023-06-22T06:25:21;7.43;;;5.33;;
8574;SDS011;4325;42.520;27.448;2023-06-22T06:27:48;10.73;;;6.10;;
8574;SDS011;4325;42.520;27.448;2023-06-22T06:30:17;7.50;;;5.93;;
8574;SDS011;4325;42.520;27.448;2023-06-22T06:32:45;8.13;;;5.57;;
8574;SDS011;4325;42.520;27.448;2023-06-22T06:35:13;6.63;;;5.13;;
8574;SDS011;4325;42.520;27.448;2023-06-22T06:37:43;9.00;;;4.77;;
8574;SDS011;4325;42.520;27.448;2023-06-22T06:40:12;5.83;;;5.07;;
8574;SDS011;4325;42.520;27.448;2023-06-22T06:42:40;6.03;;;4.13;;
8574;SDS011;4325;42.520;27.448;2023-06-22T06:45:10;5.77;;;4.53;;
8574;SDS011;4325;42.520;27.448;2023-06-22T06:47:37;7.60;;;4.77;;
8574;SDS011;4325;42.520;27.448;2023-06-22T06:50:05;7.53;;;4.90;;
8574;SDS011;4325;42.520;27.448;2023-06-22T06:52:33;7.23;;;5.10;;
8574;SDS011;4325;42.520;27.448;2023-06-22T06:55:02;6.87;;;4.37;;
8574;SDS011;4325;42.520;27.448;2023-06-22T06:57:33;9.10;;;5.43;;
8574;SDS011;4325;42.520;27.448;2023-06-22T07:00:02;5.27;;;4.77;;
8574;SDS011;4325;42.520;27.448;2023-06-22T07:02:35;6.90;;;4.70;;
8574;SDS011;4325;42.520;27.448;2023-06-22T07:05:02;4.90;;;4.00;;
8574;SDS011;4325;42.520;27.448;2023-06-22T07:07:29;4.50;;;3.77;;
8574;SDS011;4325;42.520;27.448;2023-06-22T07:09:56;8.23;;;4.67;;
8574;SDS011;4325;42.520;27.448;2023-06-22T07:12:25;5.10;;;4.43;;
8574;SDS011;4325;42.520;27.448;2023-06-22T07:14:52;3.50;;;3.20;;
8574;SDS011;4325;42.520;27.448;2023-06-22T07:17:18;5.13;;;4.53;;
8574;SDS011;4325;42.520;27.448;2023-06-22T07:19:45;4.57;;;4.17;;
8574;SDS011;4325;42.520;27.448;2023-06-22T07:22:12;5.67;;;3.80;;
8574;SDS011;4325;42.520;27.448;2023-06-22T07:24:39;6.83;;;4.33;;
8574;SDS011;4325;42.520;27.448;2023-06-22T07:27:06;4.37;;;3.87;;
8574;SDS011;4325;42.520;27.448;2023-06-22T07:29:37;4.10;;;3.70;;
8574;SDS011;4325;42.520;27.448;2023-06-22T07:32:06;5.17;;;4.30;;
8574;SDS011;4325;42.520;27.448;2023-06-22T07:34:33;5.53;;;4.47;;
8574;SDS011;4325;42.520;27.448;2023-06-22T07:37:00;5.93;;;4.50;;
8574;SDS011;4325;42.520;27.448;2023-06-22T07:39:28;5.20;;;4.60;;
8574;SDS011;4325;42.520;27.448;2023-06-22T07:41:55;4.63;;;4.23;;
8574;SDS011;4325;42.520;27.448;2023-06-22T07:44:22;5.47;;;4.90;;
8574;SDS011;4325;42.520;27.448;2023-06-22T07:46:50;6.40;;;4.63;;
8574;SDS011;4325;42.520;27.448;2023-06-22T07:49:17;6.07;;;4.80;;
8574;SDS011;4325;42.520;27.448;2023-06-22T07:51:44;5.17;;;4.67;;
8574;SDS011;4325;42.520;27.448;2023-06-22T07:54:11;8.03;;;4.60;;
8574;SDS011;4325;42.520;27.448;2023-06-22T07:56:38;5.03;;;4.47;;
8574;SDS011;4325;42.520;27.448;2023-06-22T07:59:04;5.47;;;4.47;;
8574;SDS011;4325;42.520;27.448;2023-06-22T08:01:31;4.93;;;4.37;;
8574;SDS011;4325;42.520;27.448;2023-06-22T08:03:59;5.53;;;3.60;;
8574;SDS011;4325;42.520;27.448;2023-06-22T08:06:26;3.83;;;3.53;;
8574;SDS011;4325;42.520;27.448;2023-06-22T08:08:56;4.00;;;3.50;;
8574;SDS011;4325;42.520;27.448;2023-06-22T08:11:24;4.73;;;4.23;;
8574;SDS011;4325;42.520;27.448;2023-06-22T08:13:51;4.87;;;4.20;;
8574;SDS011;4325;42.520;27.448;2023-06-22T08:16:20;4.30;;;3.90;;
8574;SDS011;4325;42.520;27.448;2023-06-22T08:18:47;4.43;;;4.03;;
8574;SDS011;4325;42.520;27.448;2023-06-22T08:21:15;4.63;;;4.10;;
8574;SDS011;4325;42.520;27.448;2023-06-22T08:23:42;4.07;;;3.60;;
8574;SDS011;4325;42.520;27.448;2023-06-22T08:26:09;3.73;;;3.43;;
8574;SDS011;4325;42.520;27.448;2023-06-22T08:28:36;5.10;;;4.07;;
8574;SDS011;4325;42.520;27.448;2023-06-22T08:31:03;5.40;;;4.00;;
8574;SDS011;4325;42.520;27.448;2023-06-22T08:33:30;5.30;;;4.10;;
8574;SDS011;4325;42.520;27.448;2023-06-22T08:35:57;5.17;;;3.90;;
8574;SDS011;4325;42.520;27.448;2023-06-22T08:38:27;5.07;;;4.33;;
8574;SDS011;4325;42.520;27.448;2023-06-22T08:40:53;4.60;;;4.13;;
8574;SDS011;4325;42.520;27.448;2023-06-22T08:43:20;3.57;;;3.27;;
8574;SDS011;4325;42.520;27.448;2023-06-22T08:45:47;4.10;;;3.70;;
8574;SDS011;4325;42.520;27.448;2023-06-22T08:48:14;3.90;;;3.53;;
8574;SDS011;4325;42.520;27.448;2023-06-22T08:50:41;3.37;;;3.07;;
8574;SDS011;4325;42.520;27.448;2023-06-22T08:53:08;4.20;;;3.80;;
8574;SDS011;4325;42.520;27.448;2023-06-22T08:55:36;3.30;;;3.00;;
8574;SDS011;4325;42.520;27.448;2023-06-22T08:58:03;4.10;;;3.70;;
8574;SDS011;4325;42.520;27.448;2023-06-22T09:00:30;3.67;;;3.37;;
8574;SDS011;4325;42.520;27.448;2023-06-22T09:02:58;9.20;;;3.60;;
8574;SDS011;4325;42.520;27.448;2023-06-22T09:05:25;3.60;;;3.30;;
8574;SDS011;4325;42.520;27.448;2023-06-22T09:07:52;7.40;;;3.30;;
8574;SDS011;4325;42.520;27.448;2023-06-22T09:10:20;3.90;;;3.50;;
8574;SDS011;4325;42.520;27.448;2023-06-22T09:12:48;4.10;;;3.07;;
8574;SDS011;4325;42.520;27.448;2023-06-22T09:15:15;3.30;;;3.00;;
8574;SDS011;4325;42.520;27.448;2023-06-22T09:17:42;5.00;;;3.30;;
8574;SDS011;4325;42.520;27.448;2023-06-22T09:20:11;14.07;;;3.87;;
8574;SDS011;4325;42.520;27.448;2023-06-22T09:22:38;3.88;;;3.58;;
8574;SDS011;4325;42.520;27.448;2023-06-22T09:25:06;3.75;;;3.45;;
8574;SDS011;4325;42.520;27.448;2023-06-22T09:27:33;3.65;;;3.35;;
8574;SDS011;4325;42.520;27.448;2023-06-22T09:30:01;4.95;;;4.00;;
8574;SDS011;4325;42.520;27.448;2023-06-22T09:32:29;6.20;;;4.18;;
8574;SDS011;4325;42.520;27.448;2023-06-22T09:34:55;4.88;;;4.38;;
8574;SDS011;4325;42.520;27.448;2023-06-22T09:37:22;4.95;;;4.28;;
8574;SDS011;4325;42.520;27.448;2023-06-22T09:39:49;4.32;;;3.92;;
8574;SDS011;4325;42.520;27.448;2023-06-22T09:42:16;5.32;;;4.05;;
8574;SDS011;4325;42.520;27.448;2023-06-22T09:44:43;6.13;;;4.90;;
8574;SDS011;4325;42.520;27.448;2023-06-22T09:47:11;6.97;;;4.72;;
8574;SDS011;4325;42.520;27.448;2023-06-22T09:49:38;6.70;;;4.60;;
8574;SDS011;4325;42.520;27.448;2023-06-22T09:52:05;7.05;;;4.53;;
8574;SDS011;4325;42.520;27.448;2023-06-22T09:54:33;8.45;;;5.07;;
8574;SDS011;4325;42.520;27.448;2023-06-22T09:57:00;9.18;;;5.38;;
8574;SDS011;4325;42.520;27.448;2023-06-22T09:59:27;10.00;;;5.65;;
8574;SDS011;4325;42.520;27.448;2023-06-22T10:01:54;7.95;;;5.40;;
8574;SDS011;4325;42.520;27.448;2023-06-22T10:04:22;8.52;;;5.63;;
8574;SDS011;4325;42.520;27.448;2023-06-22T10:06:49;7.13;;;4.78;;
8574;SDS011;4325;42.520;27.448;2023-06-22T10:09:16;6.32;;;4.38;;
8574;SDS011;4325;42.520;27.448;2023-06-22T10:11:43;9.02;;;4.97;;
8574;SDS011;4325;42.520;27.448;2023-06-22T10:14:10;7.10;;;4.53;;
8574;SDS011;4325;42.520;27.448;2023-06-22T10:16:37;7.43;;;4.75;;
8574;SDS011;4325;42.520;27.448;2023-06-22T10:19:04;7.78;;;5.35;;
8574;SDS011;4325;42.520;27.448;2023-06-22T10:21:32;8.18;;;5.75;;
8574;SDS011;4325;42.520;27.448;2023-06-22T10:23:59;6.32;;;5.03;;
8574;SDS011;4325;42.520;27.448;2023-06-22T10:26:31;6.97;;;5.32;;
8574;SDS011;4325;42.520;27.448;2023-06-22T10:28:58;5.28;;;4.78;;
8574;SDS011;4325;42.520;27.448;2023-06-22T10:31:25;4.90;;;4.47;;
8574;SDS011;4325;42.520;27.448;2023-06-22T10:33:52;4.97;;;4.22;;
8574;SDS011;4325;42.520;27.448;2023-06-22T10:36:20;4.82;;;4.35;;
8574;SDS011;4325;42.520;27.448;2023-06-22T10:38:48;5.38;;;4.57;;
8574;SDS011;4325;42.520;27.448;2023-06-22T10:41:15;6.57;;;4.35;;
8574;SDS011;4325;42.520;27.448;2023-06-22T10:43:42;5.68;;;4.22;;
8574;SDS011;4325;42.520;27.448;2023-06-22T10:46:09;5.35;;;4.30;;
8574;SDS011;4325;42.520;27.448;2023-06-22T10:48:36;7.38;;;4.43;;
8574;SDS011;4325;42.520;27.448;2023-06-22T10:51:03;3.95;;;3.55;;
8574;SDS011;4325;42.520;27.448;2023-06-22T10:53:31;6.93;;;4.45;;
8574;SDS011;4325;42.520;27.448;2023-06-22T10:55:59;4.70;;;4.20;;
8574;SDS011;4325;42.520;27.448;2023-06-22T10:58:26;6.57;;;4.20;;
8574;SDS011;4325;42.520;27.448;2023-06-22T11:00:53;4.40;;;4.00;;
8574;SDS011;4325;42.520;27.448;2023-06-22T11:03:20;4.70;;;3.97;;
8574;SDS011;4325;42.520;27.448;2023-06-22T11:05:47;3.97;;;3.60;;
8574;SDS011;4325;42.520;27.448;2023-06-22T11:08:14;4.18;;;3.60;;
8574;SDS011;4325;42.520;27.448;2023-06-22T11:10:41;4.55;;;4.13;;
8574;SDS011;4325;42.520;27.448;2023-06-22T11:13:10;4.35;;;3.88;;
8574;SDS011;4325;42.520;27.448;2023-06-22T11:15:37;3.78;;;3.35;;
8574;SDS011;4325;42.520;27.448;2023-06-22T11:18:05;6.07;;;3.92;;
8574;SDS011;4325;42.520;27.448;2023-06-22T11:20:33;4.78;;;4.18;;
8574;SDS011;4325;42.520;27.448;2023-06-22T11:23:04;4.57;;;4.15;;
8574;SDS011;4325;42.520;27.448;2023-06-22T11:25:32;4.28;;;3.88;;
8574;SDS011;4325;42.520;27.448;2023-06-22T11:28:00;4.75;;;4.00;;
8574;SDS011;4325;42.520;27.448;2023-06-22T11:30:29;5.80;;;4.40;;
8574;SDS011;4325;42.520;27.448;2023-06-22T11:32:56;4.63;;;3.80;;
8574;SDS011;4325;42.520;27.448;2023-06-22T11:35:24;4.93;;;4.13;;
8574;SDS011;4325;42.520;27.448;2023-06-22T11:37:50;5.15;;;3.92;;
8574;SDS011;4325;42.520;27.448;2023-06-22T11:40:17;4.55;;;4.05;;
8574;SDS011;4325;42.520;27.448;2023-06-22T11:42:44;5.57;;;4.55;;
8574;SDS011;4325;42.520;27.448;2023-06-22T11:45:11;7.22;;;4.45;;
8574;SDS011;4325;42.520;27.448;2023-06-22T11:47:40;5.88;;;4.07;;
8574;SDS011;4325;42.520;27.448;2023-06-22T11:50:07;8.57;;;4.88;;
8574;SDS011;4325;42.520;27.448;2023-06-22T11:52:34;11.30;;;5.40;;
8574;SDS011;4325;42.520;27.448;2023-06-22T11:55:02;7.50;;;4.82;;
8574;SDS011;4325;42.520;27.448;2023-06-22T11:57:32;6.35;;;4.95;;
8574;SDS011;4325;42.520;27.448;2023-06-22T11:59:59;4.88;;;4.13;;
8574;SDS011;4325;42.520;27.448;2023-06-22T12:02:27;5.85;;;4.40;;
8574;SDS011;4325;42.520;27.448;2023-06-22T12:04:55;6.25;;;4.35;;
8574;SDS011;4325;42.520;27.448;2023-06-22T12:07:23;4.50;;;4.00;;
8574;SDS011;4325;42.520;27.448;2023-06-22T12:09:50;4.13;;;3.78;;
8574;SDS011;4325;42.520;27.448;2023-06-22T12:12:17;4.03;;;3.63;;
8574;SDS011;4325;42.520;27.448;2023-06-22T12:14:43;4.32;;;3.92;;
8574;SDS011;4325;42.520;27.448;2023-06-22T12:17:10;4.65;;;4.05;;
8574;SDS011;4325;42.520;27.448;2023-06-22T12:19:37;4.30;;;4.00;;
8574;SDS011;4325;42.520;27.448;2023-06-22T12:22:06;3.72;;;3.40;;
8574;SDS011;4325;42.520;27.448;2023-06-22T12:24:33;3.88;;;3.58;;
8574;SDS011;4325;42.520;27.448;2023-06-22T12:26:59;3.90;;;3.58;;
8574;SDS011;4325;42.520;27.448;2023-06-22T12:29:28;4.47;;;4.07;;
8574;SDS011;4325;42.520;27.448;2023-06-22T12:31:55;4.40;;;3.72;;
8574;SDS011;4325;42.520;27.448;2023-06-22T12:34:22;4.10;;;3.70;;
8574;SDS011;4325;42.520;27.448;2023-06-22T12:36:49;4.85;;;4.15;;
8574;SDS011;4325;42.520;27.448;2023-06-22T12:39:17;5.45;;;4.20;;
8574;SDS011;4325;42.520;27.448;2023-06-22T12:41:44;3.50;;;3.20;;
8574;SDS011;4325;42.520;27.448;2023-06-22T12:44:11;4.22;;;3.83;;
8574;SDS011;4325;42.520;27.448;2023-06-22T12:46:38;3.90;;;3.53;;
8574;SDS011;4325;42.520;27.448;2023-06-22T12:49:05;4.75;;;4.18;;
8574;SDS011;4325;42.520;27.448;2023-06-22T12:51:31;4.65;;;3.92;;
8574;SDS011;4325;42.520;27.448;2023-06-22T12:53:59;4.82;;;3.45;;
8574;SDS011;4325;42.520;27.448;2023-06-22T12:56:27;3.67;;;3.38;;
8574;SDS011;4325;42.520;27.448;2023-06-22T12:58:54;4.10;;;3.70;;
8574;SDS011;4325;42.520;27.448;2023-06-22T13:01:21;3.70;;;3.40;;
8574;SDS011;4325;42.520;27.448;2023-06-22T13:03:48;4.50;;;4.10;;
8574;SDS011;4325;42.520;27.448;2023-06-22T13:06:15;3.53;;;3.22;;
8574;SDS011;4325;42.520;27.448;2023-06-22T13:08:41;3.53;;;3.22;;
8574;SDS011;4325;42.520;27.448;2023-06-22T13:11:08;4.20;;;3.80;;
8574;SDS011;4325;42.520;27.448;2023-06-22T13:13:36;4.00;;;3.50;;
8574;SDS011;4325;42.520;27.448;2023-06-22T13:16:04;3.83;;;3.47;;
8574;SDS011;4325;42.520;27.448;2023-06-22T13:18:31;3.92;;;3.53;;
8574;SDS011;4325;42.520;27.448;2023-06-22T13:20:59;4.88;;;3.92;;
8574;SDS011;4325;42.520;27.448;2023-06-22T13:23:25;6.03;;;4.35;;
8574;SDS011;4325;42.520;27.448;2023-06-22T13:25:52;4.22;;;3.72;;
8574;SDS011;4325;42.520;27.448;2023-06-22T13:28:19;3.90;;;3.60;;
8574;SDS011;4325;42.520;27.448;2023-06-22T13:30:48;5.03;;;4.53;;
8574;SDS011;4325;42.520;27.448;2023-06-22T13:33:14;4.18;;;3.78;;
8574;SDS011;4325;42.520;27.448;2023-06-22T13:35:41;4.20;;;3.80;;
8574;SDS011;4325;42.520;27.448;2023-06-22T13:38:09;4.00;;;3.60;;
8574;SDS011;4325;42.520;27.448;2023-06-22T13:40:36;4.87;;;4.40;;
8574;SDS011;4325;42.520;27.448;2023-06-22T13:43:04;4.32;;;3.92;;
8574;SDS011;4325;42.520;27.448;2023-06-22T13:45:31;4.28;;;3.88;;
8574;SDS011;4325;42.520;27.448;2023-06-22T13:47:59;3.70;;;3.40;;
8574;SDS011;4325;42.520;27.448;2023-06-22T13:50:26;4.30;;;3.90;;
8574;SDS011;4325;42.520;27.448;2023-06-22T13:52:54;6.45;;;3.97;;
8574;SDS011;4325;42.520;27.448;2023-06-22T13:55:21;5.03;;;4.22;;
8574;SDS011;4325;42.520;27.448;2023-06-22T13:57:48;4.50;;;3.65;;
8574;SDS011;4325;42.520;27.448;2023-06-22T14:00:16;3.95;;;3.60;;
8574;SDS011;4325;42.520;27.448;2023-06-22T14:02:44;4.65;;;4.18;;
8574;SDS011;4325;42.520;27.448;2023-06-22T14:05:12;3.83;;;3.53;;
8574;SDS011;4325;42.520;27.448;2023-06-22T14:07:39;4.10;;;3.70;;
8574;SDS011;4325;42.520;27.448;2023-06-22T14:10:06;5.13;;;4.05;;
8574;SDS011;4325;42.520;27.448;2023-06-22T14:12:33;6.28;;;4.43;;
8574;SDS011;4325;42.520;27.448;2023-06-22T14:15:00;5.38;;;4.43;;
8574;SDS011;4325;42.520;27.448;2023-06-22T14:17:27;4.30;;;3.90;;
8574;SDS011;4325;42.520;27.448;2023-06-22T14:19:54;3.97;;;3.58;;
8574;SDS011;4325;42.520;27.448;2023-06-22T14:22:22;4.40;;;4.00;;
8574;SDS011;4325;42.520;27.448;2023-06-22T14:24:49;4.30;;;3.90;;
8574;SDS011;4325;42.520;27.448;2023-06-22T14:27:16;4.65;;;3.90;;
8574;SDS011;4325;42.520;27.448;2023-06-22T14:29:43;4.35;;;3.95;;
8574;SDS011;4325;42.520;27.448;2023-06-22T14:32:10;4.27;;;3.87;;
8574;SDS011;4325;42.520;27.448;2023-06-22T14:34:37;5.47;;;4.03;;
8574;SDS011;4325;42.520;27.448;2023-06-22T14:37:05;3.87;;;3.57;;
8574;SDS011;4325;42.520;27.448;2023-06-22T14:39:33;6.20;;;4.47;;
8574;SDS011;4325;42.520;27.448;2023-06-22T14:42:00;4.77;;;4.00;;
8574;SDS011;4325;42.520;27.448;2023-06-22T14:44:28;7.03;;;4.50;;
8574;SDS011;4325;42.520;27.448;2023-06-22T14:46:55;4.50;;;4.10;;
8574;SDS011;4325;42.520;27.448;2023-06-22T14:49:22;4.50;;;4.07;;
8574;SDS011;4325;42.520;27.448;2023-06-22T14:51:50;4.30;;;3.90;;
8574;SDS011;4325;42.520;27.448;2023-06-22T14:54:17;4.17;;;3.80;;
8574;SDS011;4325;42.520;27.448;2023-06-22T14:56:45;7.27;;;4.27;;
8574;SDS011;4325;42.520;27.448;2023-06-22T14:59:12;5.73;;;4.00;;
8574;SDS011;4325;42.520;27.448;2023-06-22T15:01:39;5.00;;;4.50;;